Time;durP1;ratioP1;P1;durP2;ratioP2;P2;SDS_P1;SDS_P2;PMS_P1;PMS_P2;Temp;Humidity;BMP_temperature;BMP_pressure;BME280_temperature;BME280_humidity;BME280_pressure;Samples;Min_cycle;Max_cycle;Signal;HPM_P1;HPM_P2
2022/03/10 00:01:48;;;;;;;26.33;13.75;;;4.40;69.70;;;;;;4994424;28;20021;-79
2022/03/10 00:04:13;;;;;;;26.90;13.45;;;4.30;70.00;;;;;;5010769;28;20022;-79
2022/03/10 00:06:39;;;;;;;28.98;13.88;;;4.30;70.30;;;;;;5005585;28;20486;-79
2022/03/10 00:09:04;;;;;;;28.48;12.65;;;4.20;70.60;;;;;;5005962;28;20052;-79
2022/03/10 00:11:30;;;;;;;28.67;13.02;;;4.20;70.80;;;;;;5001930;28;20022;-80
2022/03/10 00:13:55;;;;;;;29.17;14.18;;;4.10;71.00;;;;;;5014840;28;20034;-79
2022/03/10 00:16:22;;;;;;;25.73;12.75;;;4.10;71.30;;;;;;5014644;28;20034;-79
2022/03/10 00:18:47;;;;;;;23.52;12.43;;;4.00;71.50;;;;;;5006981;28;20066;-79
2022/03/10 00:21:13;;;;;;;23.85;12.48;;;4.00;71.70;;;;;;5013011;28;20103;-79
2022/03/10 00:23:39;;;;;;;27.30;13.25;;;4.00;71.90;;;;;;4992837;28;20430;-79
2022/03/10 00:26:05;;;;;;;26.58;12.57;;;4.00;72.10;;;;;;5004283;28;20109;-80
2022/03/10 00:28:31;;;;;;;29.15;13.82;;;3.90;72.30;;;;;;4999468;28;20082;-79
2022/03/10 00:30:56;;;;;;;22.83;12.40;;;3.90;72.30;;;;;;5007949;28;20065;-79
2022/03/10 00:33:22;;;;;;;24.23;12.35;;;3.90;72.50;;;;;;5003246;28;20047;-79
2022/03/10 00:35:48;;;;;;;20.83;11.88;;;3.90;72.60;;;;;;5014801;28;20022;-79
2022/03/10 00:38:14;;;;;;;25.17;13.25;;;3.90;72.60;;;;;;5002592;28;20236;-79
2022/03/10 00:40:39;;;;;;;22.45;12.00;;;3.90;72.80;;;;;;5006400;28;20486;-79
2022/03/10 00:43:12;;;;;;;22.52;12.88;;;3.90;73.00;;;;;;5013214;28;20388;-79
2022/03/10 00:45:38;;;;;;;26.65;12.45;;;4.00;73.20;;;;;;5004724;28;20053;-79
2022/03/10 00:48:04;;;;;;;24.25;12.82;;;4.00;73.20;;;;;;5008828;28;20034;-79
2022/03/10 00:50:30;;;;;;;24.50;12.57;;;3.90;73.10;;;;;;5008367;28;20504;-80
2022/03/10 00:52:55;;;;;;;24.52;12.50;;;3.90;73.30;;;;;;5013752;28;20045;-79
2022/03/10 00:55:21;;;;;;;23.15;11.68;;;3.90;73.50;;;;;;5001156;28;20127;-79
2022/03/10 00:57:49;;;;;;;25.48;11.82;;;3.90;73.70;;;;;;5002174;28;20030;-79
2022/03/10 01:00:15;;;;;;;24.65;12.50;;;3.90;73.80;;;;;;5001463;28;20025;-79
2022/03/10 01:02:41;;;;;;;30.17;13.57;;;3.90;74.00;;;;;;5016128;28;20030;-79
2022/03/10 01:05:08;;;;;;;24.40;12.50;;;3.90;74.20;;;;;;4996357;28;20041;-80
2022/03/10 01:07:34;;;;;;;22.00;12.65;;;3.90;74.30;;;;;;5001295;28;20040;-79
2022/03/10 01:10:00;;;;;;;24.75;11.93;;;3.80;74.50;;;;;;5002982;28;20049;-79
2022/03/10 01:12:26;;;;;;;25.73;12.55;;;3.80;74.70;;;;;;5013964;28;20100;-79
2022/03/10 01:14:52;;;;;;;26.13;13.60;;;3.70;74.90;;;;;;5006899;28;20041;-79
2022/03/10 01:17:18;;;;;;;30.98;13.13;;;3.70;75.20;;;;;;5013731;28;20026;-80
2022/03/10 01:19:50;;;;;;;28.23;12.52;;;3.70;75.40;;;;;;5010658;28;20033;-78
2022/03/10 01:22:17;;;;;;;22.40;11.20;;;3.70;75.60;;;;;;4998803;28;20026;-79
2022/03/10 01:24:42;;;;;;;26.13;13.40;;;3.60;75.80;;;;;;4994780;28;20143;-79
2022/03/10 01:27:09;;;;;;;23.15;12.27;;;3.60;76.00;;;;;;4995625;28;20051;-79
2022/03/10 01:29:35;;;;;;;23.20;12.43;;;3.60;76.30;;;;;;5012744;28;20069;-79
2022/03/10 01:32:00;;;;;;;23.88;11.50;;;3.50;76.40;;;;;;4998389;28;20030;-80
2022/03/10 01:34:26;;;;;;;26.65;13.30;;;3.50;76.70;;;;;;5002107;28;20096;-78
2022/03/10 01:36:52;;;;;;;24.90;11.50;;;3.40;77.10;;;;;;4997075;28;20026;-79
2022/03/10 01:39:17;;;;;;;23.27;11.65;;;3.40;77.40;;;;;;4997023;28;20035;-79
2022/03/10 01:41:43;;;;;;;21.33;11.15;;;3.40;77.90;;;;;;5012497;28;20120;-79
2022/03/10 01:44:10;;;;;;;29.92;12.25;;;3.30;78.20;;;;;;5004539;28;20053;-79
2022/03/10 01:46:37;;;;;;;23.60;11.85;;;3.30;78.50;;;;;;5011940;28;20029;-79
2022/03/10 01:49:04;;;;;;;28.75;12.35;;;3.30;78.90;;;;;;5003648;28;20144;-79
2022/03/10 01:51:30;;;;;;;21.25;10.65;;;3.30;79.30;;;;;;5012592;28;20026;-79
2022/03/10 01:53:56;;;;;;;22.13;11.63;;;3.30;80.20;;;;;;5008720;28;20061;-79
2022/03/10 01:56:24;;;;;;;27.25;12.65;;;3.20;80.10;;;;;;4997206;28;20057;-79
2022/03/10 01:58:52;;;;;;;26.23;12.90;;;3.30;80.40;;;;;;4997656;28;20072;-79
2022/03/10 02:01:18;;;;;;;25.33;11.73;;;3.30;80.70;;;;;;5012047;28;20021;-79
2022/03/10 02:03:44;;;;;;;26.77;12.80;;;3.30;80.80;;;;;;5010676;28;20378;-79
2022/03/10 02:06:11;;;;;;;24.30;13.43;;;3.30;81.00;;;;;;5010889;28;20029;-80
2022/03/10 02:11:22;;;;;;;24.55;12.95;;;3.30;81.70;;;;;;5007230;28;20048;-79
2022/03/10 02:13:48;;;;;;;24.73;12.68;;;3.30;82.00;;;;;;4997961;28;20038;-79
2022/03/10 02:19:00;;;;;;;28.33;13.13;;;3.20;82.50;;;;;;4994252;28;20085;-79
2022/03/10 02:21:26;;;;;;;25.38;12.63;;;3.20;82.70;;;;;;5008516;28;20028;-79
2022/03/10 02:23:53;;;;;;;26.25;12.10;;;3.10;83.00;;;;;;5010493;28;20112;-79
2022/03/10 02:26:19;;;;;;;27.65;12.15;;;3.10;83.40;;;;;;4997743;28;20109;-79
2022/03/10 02:28:44;;;;;;;27.88;14.20;;;3.10;83.70;;;;;;5004661;28;20134;-79
2022/03/10 02:31:11;;;;;;;29.73;14.10;;;3.10;84.00;;;;;;5010974;28;20018;-79
2022/03/10 02:33:37;;;;;;;24.92;13.57;;;3.10;84.50;;;;;;5010360;28;20563;-79
2022/03/10 02:36:04;;;;;;;26.95;13.98;;;3.10;84.90;;;;;;5011408;28;20018;-79
2022/03/10 02:38:30;;;;;;;24.15;12.98;;;3.00;85.10;;;;;;5005874;28;20468;-79
2022/03/10 02:40:56;;;;;;;25.60;12.57;;;3.10;85.30;;;;;;5003309;28;20027;-79
2022/03/10 02:43:21;;;;;;;25.92;13.73;;;3.10;85.60;;;;;;4991303;28;20026;-79
2022/03/10 02:45:47;;;;;;;26.85;13.85;;;3.10;85.80;;;;;;5006810;28;20065;-79
2022/03/10 02:48:13;;;;;;;25.50;13.20;;;3.00;86.10;;;;;;5000944;28;20034;-79
2022/03/10 02:50:39;;;;;;;23.42;12.70;;;3.00;86.60;;;;;;5012600;28;20120;-79
2022/03/10 02:53:05;;;;;;;30.13;13.85;;;3.00;86.80;;;;;;5005894;28;20394;-79
2022/03/10 02:55:32;;;;;;;23.73;11.98;;;3.00;87.40;;;;;;4998362;28;20033;-78
2022/03/10 02:57:57;;;;;;;25.73;13.02;;;2.90;87.70;;;;;;4989716;28;20065;-78
2022/03/10 03:00:23;;;;;;;28.70;12.68;;;3.00;88.10;;;;;;5009891;28;20608;-77
2022/03/10 03:02:49;;;;;;;26.52;13.70;;;2.90;88.60;;;;;;5013638;28;20367;-78
2022/03/10 03:05:15;;;;;;;22.88;11.65;;;2.90;88.90;;;;;;5009811;28;20165;-78
2022/03/10 03:07:41;;;;;;;24.67;12.60;;;2.90;89.20;;;;;;5007402;28;20018;-78
2022/03/10 03:10:07;;;;;;;25.88;13.48;;;2.90;89.40;;;;;;5000652;28;20046;-78
2022/03/10 03:12:34;;;;;;;30.15;14.48;;;2.90;89.80;;;;;;5001145;28;20034;-78
2022/03/10 03:15:00;;;;;;;23.77;11.98;;;2.80;90.00;;;;;;4980244;28;20033;-78
2022/03/10 03:17:26;;;;;;;25.33;13.43;;;2.80;90.20;;;;;;4985297;28;20052;-78
2022/03/10 03:19:53;;;;;;;22.50;12.25;;;2.80;90.40;;;;;;4992796;28;20393;-78
2022/03/10 03:22:19;;;;;;;25.67;12.63;;;2.80;90.50;;;;;;4995553;28;20034;-78
2022/03/10 03:24:45;;;;;;;27.13;13.13;;;2.70;90.60;;;;;;5010330;28;20485;-78
2022/03/10 03:27:11;;;;;;;28.77;12.90;;;2.70;90.80;;;;;;4999615;28;20029;-78
2022/03/10 03:29:37;;;;;;;29.15;13.70;;;2.70;90.90;;;;;;4990418;28;20054;-78
2022/03/10 03:32:04;;;;;;;22.52;11.90;;;2.60;91.00;;;;;;5007417;28;20432;-78
2022/03/10 03:34:30;;;;;;;26.60;12.20;;;2.60;91.10;;;;;;5008012;28;20036;-79
2022/03/10 03:36:55;;;;;;;25.25;12.25;;;2.60;91.20;;;;;;5009693;28;20044;-78
2022/03/10 03:39:21;;;;;;;29.00;14.02;;;2.60;91.20;;;;;;5004175;28;20048;-78
2022/03/10 03:41:46;;;;;;;23.55;12.18;;;2.50;91.30;;;;;;5006440;28;20026;-78
2022/03/10 03:44:13;;;;;;;30.05;12.25;;;2.50;91.40;;;;;;4990725;28;20045;-78
2022/03/10 03:46:40;;;;;;;25.27;12.82;;;2.50;91.40;;;;;;5002585;28;20026;-77
2022/03/10 03:49:06;;;;;;;26.50;13.70;;;2.50;91.50;;;;;;5007646;28;20078;-78
2022/03/10 03:51:32;;;;;;;24.08;12.98;;;2.40;91.60;;;;;;4996107;28;20026;-78
2022/03/10 03:53:58;;;;;;;28.30;13.77;;;2.40;91.80;;;;;;5001452;28;20397;-79
2022/03/10 03:56:23;;;;;;;25.98;12.38;;;2.30;92.00;;;;;;4997799;28;20044;-79
2022/03/10 03:58:49;;;;;;;28.65;13.73;;;2.40;92.20;;;;;;4990004;28;20025;-79
2022/03/10 04:01:14;;;;;;;29.38;12.73;;;2.30;92.30;;;;;;5009034;28;20040;-79
2022/03/10 04:03:40;;;;;;;26.23;12.73;;;2.30;92.30;;;;;;4992680;28;20034;-79
2022/03/10 04:06:06;;;;;;;31.17;13.15;;;2.30;92.40;;;;;;5005289;28;20022;-78
2022/03/10 04:08:32;;;;;;;28.40;13.27;;;2.30;92.50;;;;;;4991012;28;20062;-79
2022/03/10 04:10:57;;;;;;;25.48;12.27;;;2.30;92.60;;;;;;4994203;28;20422;-79
2022/03/10 04:13:23;;;;;;;28.40;13.45;;;2.30;92.70;;;;;;5006829;28;20034;-79
2022/03/10 04:15:49;;;;;;;27.23;12.85;;;2.30;92.70;;;;;;4997506;28;20072;-79
2022/03/10 04:18:19;;;;;;;26.00;12.70;;;2.20;92.70;;;;;;5000917;28;20022;-78
2022/03/10 04:20:45;;;;;;;29.38;13.35;;;2.20;92.80;;;;;;5000830;28;20485;-79
2022/03/10 04:23:12;;;;;;;28.67;13.25;;;2.10;92.90;;;;;;5009412;28;20505;-79
2022/03/10 04:25:38;;;;;;;27.25;13.48;;;2.10;93.10;;;;;;5002715;28;20026;-79
2022/03/10 04:28:04;;;;;;;25.10;12.23;;;2.10;93.20;;;;;;4986140;28;20100;-80
2022/03/10 04:30:32;;;;;;;23.98;13.38;;;2.00;93.30;;;;;;4992249;28;20426;-79
2022/03/10 04:32:59;;;;;;;27.10;13.20;;;2.00;93.40;;;;;;5005329;28;20025;-79
2022/03/10 04:35:25;;;;;;;31.13;13.00;;;1.90;93.60;;;;;;5010891;28;20036;-79
2022/03/10 04:37:52;;;;;;;28.10;13.35;;;1.80;93.80;;;;;;5002232;28;20049;-79
2022/03/10 04:40:19;;;;;;;25.30;13.18;;;1.80;94.10;;;;;;5000192;28;20041;-79
2022/03/10 04:42:45;;;;;;;25.35;12.73;;;1.70;94.20;;;;;;4990850;28;20033;-79
2022/03/10 04:45:11;;;;;;;32.92;13.02;;;1.80;94.30;;;;;;4988633;28;20041;-79
2022/03/10 04:47:37;;;;;;;24.77;12.00;;;1.70;94.30;;;;;;5005644;28;20394;-79
2022/03/10 04:50:05;;;;;;;22.40;12.30;;;1.80;94.30;;;;;;5004400;28;20038;-79
2022/03/10 04:52:31;;;;;;;22.92;12.45;;;1.70;94.40;;;;;;5004323;28;20085;-79
2022/03/10 04:54:57;;;;;;;25.95;11.88;;;1.70;94.40;;;;;;4995923;28;20101;-79
2022/03/10 04:57:22;;;;;;;28.77;13.27;;;1.70;94.50;;;;;;5010201;28;20158;-79
2022/03/10 04:59:49;;;;;;;27.83;11.80;;;1.70;94.50;;;;;;5001234;28;20062;-80
2022/03/10 05:02:14;;;;;;;26.15;12.65;;;1.70;94.60;;;;;;4996682;28;20021;-79
2022/03/10 05:04:40;;;;;;;27.80;12.65;;;1.60;94.70;;;;;;5011871;28;20030;-79
2022/03/10 05:07:06;;;;;;;24.38;12.45;;;1.60;94.70;;;;;;5012446;28;20030;-79
2022/03/10 05:09:31;;;;;;;25.67;12.98;;;1.60;94.80;;;;;;5007931;28;20061;-79
2022/03/10 05:11:57;;;;;;;24.23;11.80;;;1.60;94.80;;;;;;4998222;28;20044;-78
2022/03/10 05:14:24;;;;;;;26.00;12.27;;;1.60;94.80;;;;;;5004419;28;20030;-79
2022/03/10 05:16:49;;;;;;;25.73;13.15;;;1.60;95.00;;;;;;5000753;28;20086;-79
2022/03/10 05:19:15;;;;;;;26.92;12.60;;;1.60;95.00;;;;;;5008333;28;20105;-79
2022/03/10 05:21:40;;;;;;;27.00;13.38;;;1.50;95.10;;;;;;5004788;28;20026;-79
2022/03/10 05:24:06;;;;;;;25.17;12.48;;;1.50;95.20;;;;;;5003356;28;20026;-78
2022/03/10 05:26:31;;;;;;;27.35;13.38;;;1.50;95.20;;;;;;5004115;28;20106;-79
2022/03/10 05:28:58;;;;;;;27.58;13.02;;;1.50;95.60;;;;;;4996303;28;20168;-79
2022/03/10 05:31:24;;;;;;;28.90;12.52;;;1.50;95.30;;;;;;5011060;28;20022;-79
2022/03/10 05:33:49;;;;;;;30.23;13.18;;;1.50;95.50;;;;;;4981479;28;20049;-79
2022/03/10 05:36:15;;;;;;;27.52;12.85;;;1.50;95.50;;;;;;4995068;28;20092;-78
2022/03/10 05:38:40;;;;;;;26.13;12.15;;;1.50;95.60;;;;;;4994907;28;20030;-78
2022/03/10 05:41:06;;;;;;;27.83;13.48;;;1.50;95.60;;;;;;5001313;28;20407;-79
2022/03/10 05:43:32;;;;;;;25.63;12.38;;;1.50;95.60;;;;;;5001124;28;20026;-78
2022/03/10 05:45:58;;;;;;;23.52;11.60;;;1.50;95.50;;;;;;4993695;28;20374;-78
2022/03/10 05:48:23;;;;;;;26.48;12.82;;;1.50;95.50;;;;;;5009363;28;20108;-79
2022/03/10 05:50:49;;;;;;;23.98;12.52;;;1.50;95.60;;;;;;5007369;28;20029;-78
2022/03/10 05:53:14;;;;;;;26.33;12.50;;;1.50;95.60;;;;;;4995062;28;20045;-78
2022/03/10 05:55:40;;;;;;;26.35;12.02;;;1.50;95.60;;;;;;4980766;28;20037;-78
2022/03/10 05:58:05;;;;;;;27.27;12.60;;;1.50;95.60;;;;;;4988589;28;20556;-79
2022/03/10 06:00:32;;;;;;;27.70;12.05;;;1.50;95.60;;;;;;4991971;28;20034;-79
2022/03/10 06:02:58;;;;;;;24.05;12.68;;;1.50;95.60;;;;;;5000898;28;20021;-79
2022/03/10 06:05:23;;;;;;;27.45;13.27;;;1.50;95.70;;;;;;5013811;28;20385;-78
2022/03/10 06:07:49;;;;;;;25.40;12.65;;;1.40;95.70;;;;;;4996782;28;20524;-78
2022/03/10 06:10:15;;;;;;;28.23;12.95;;;1.40;95.80;;;;;;4992296;28;20470;-78
2022/03/10 06:12:40;;;;;;;29.52;13.48;;;1.40;96.00;;;;;;4995365;28;20027;-79
2022/03/10 06:15:08;;;;;;;29.60;12.88;;;1.40;95.70;;;;;;5005745;28;20044;-78
2022/03/10 06:17:34;;;;;;;27.58;13.82;;;1.40;95.80;;;;;;4996654;28;20026;-78
2022/03/10 06:19:59;;;;;;;30.58;13.07;;;1.50;95.70;;;;;;4984278;28;20497;-79
2022/03/10 06:22:29;;;;;;;30.33;13.38;;;1.50;95.70;;;;;;4993902;28;20474;-79
2022/03/10 06:24:55;;;;;;;27.20;12.80;;;1.50;95.60;;;;;;4993102;28;20494;-79
2022/03/10 06:27:24;;;;;;;29.50;12.70;;;1.50;95.60;;;;;;4999685;28;20513;-78
2022/03/10 06:29:51;;;;;;;27.63;12.77;;;1.60;95.60;;;;;;4993416;28;20064;-79
2022/03/10 06:32:18;;;;;;;29.15;13.30;;;1.60;95.50;;;;;;5002141;28;20137;-79
2022/03/10 06:34:46;;;;;;;29.80;13.07;;;1.70;95.40;;;;;;4993712;28;20030;-79
2022/03/10 06:37:12;;;;;;;27.55;12.23;;;1.70;95.40;;;;;;4991657;28;20110;-79
2022/03/10 06:39:39;;;;;;;26.17;12.27;;;1.70;95.30;;;;;;4999936;28;20026;-79
2022/03/10 06:42:05;;;;;;;28.13;13.35;;;1.70;95.30;;;;;;4998140;28;20425;-79
2022/03/10 06:44:31;;;;;;;24.08;11.70;;;1.70;95.30;;;;;;4996154;28;20114;-79
2022/03/10 06:46:57;;;;;;;31.33;13.32;;;1.80;95.20;;;;;;4994249;28;20105;-80
2022/03/10 06:49:22;;;;;;;29.70;12.70;;;1.80;95.20;;;;;;4996330;28;20128;-78
2022/03/10 06:51:49;;;;;;;24.48;12.35;;;2.00;95.10;;;;;;4987053;28;20504;-79
2022/03/10 06:54:15;;;;;;;24.55;12.35;;;2.00;95.20;;;;;;4990006;28;20026;-79
2022/03/10 06:56:41;;;;;;;26.92;12.90;;;2.00;94.90;;;;;;4991370;28;20117;-79
2022/03/10 06:59:07;;;;;;;24.48;11.00;;;2.10;94.90;;;;;;4990754;28;20045;-78
2022/03/10 07:01:33;;;;;;;28.23;13.02;;;2.10;94.80;;;;;;4988403;28;20433;-78
2022/03/10 07:03:59;;;;;;;29.67;13.38;;;2.20;94.70;;;;;;4997161;28;20112;-78
2022/03/10 07:06:25;;;;;;;27.60;12.95;;;2.40;94.50;;;;;;4995028;28;20460;-78
2022/03/10 07:08:51;;;;;;;26.42;12.85;;;2.50;94.40;;;;;;5009146;28;20065;-77
2022/03/10 07:11:18;;;;;;;30.08;13.15;;;2.50;94.20;;;;;;4988242;28;20046;-77
2022/03/10 07:13:44;;;;;;;23.00;10.75;;;2.70;94.20;;;;;;4985163;28;20102;-77
2022/03/10 07:16:10;;;;;;;25.15;11.55;;;2.90;93.80;;;;;;4982925;28;20113;-78
2022/03/10 07:18:36;;;;;;;27.13;12.18;;;3.00;93.40;;;;;;4979792;28;20038;-77
2022/03/10 07:21:04;;;;;;;27.05;11.82;;;3.20;93.10;;;;;;4988417;28;20034;-77
2022/03/10 07:23:29;;;;;;;28.25;13.07;;;3.40;92.70;;;;;;4986885;28;20046;-77
2022/03/10 07:25:55;;;;;;;24.15;12.52;;;3.50;92.40;;;;;;4992239;28;20061;-77
2022/03/10 07:28:20;;;;;;;24.45;13.00;;;3.70;92.10;;;;;;4991045;28;20054;-77
2022/03/10 07:30:46;;;;;;;29.33;13.43;;;3.90;91.70;;;;;;5001673;28;20042;-77
2022/03/10 07:33:11;;;;;;;26.13;13.15;;;4.00;91.30;;;;;;4976927;28;20077;-77
2022/03/10 07:35:37;;;;;;;24.00;12.52;;;4.10;90.80;;;;;;4991964;28;20027;-79
2022/03/10 07:38:03;;;;;;;26.30;13.20;;;4.30;90.70;;;;;;4994681;28;20034;-79
2022/03/10 07:40:28;;;;;;;25.45;13.15;;;4.40;90.50;;;;;;4998387;28;20033;-78
2022/03/10 07:42:54;;;;;;;22.38;12.25;;;4.50;90.30;;;;;;4983287;28;20026;-78
2022/03/10 07:45:20;;;;;;;24.80;13.27;;;4.60;89.40;;;;;;4982166;28;20024;-79
2022/03/10 07:47:46;;;;;;;25.95;13.40;;;4.80;88.10;;;;;;4986004;28;20053;-79
2022/03/10 07:50:12;;;;;;;24.58;13.02;;;4.90;87.80;;;;;;4976296;28;20046;-80
2022/03/10 07:52:37;;;;;;;23.75;12.23;;;5.00;87.00;;;;;;5003180;28;20033;-79
2022/03/10 07:55:05;;;;;;;36.05;13.05;;;5.10;86.80;;;;;;4988336;28;20030;-80
2022/03/10 07:57:31;;;;;;;26.13;12.90;;;5.30;86.60;;;;;;4986816;28;20418;-78
2022/03/10 07:59:57;;;;;;;27.38;13.52;;;5.30;86.50;;;;;;4984751;28;20034;-78
2022/03/10 08:02:23;;;;;;;25.90;12.50;;;5.50;85.70;;;;;;4969338;28;20022;-78
2022/03/10 08:04:48;;;;;;;22.65;12.23;;;5.60;85.20;;;;;;4988790;28;20442;-78
2022/03/10 08:07:14;;;;;;;23.98;13.27;;;5.70;84.90;;;;;;4998410;28;20033;-78
2022/03/10 08:09:39;;;;;;;24.58;13.00;;;5.80;84.00;;;;;;4995741;28;20050;-78
2022/03/10 08:12:05;;;;;;;25.17;13.30;;;5.90;83.70;;;;;;4986022;28;20026;-79
2022/03/10 08:14:31;;;;;;;27.92;13.40;;;6.00;83.00;;;;;;4983270;28;20029;-79
2022/03/10 08:16:57;;;;;;;25.83;13.18;;;6.20;82.80;;;;;;4984509;28;20031;-79
2022/03/10 08:19:22;;;;;;;26.00;12.80;;;6.20;82.40;;;;;;4989877;28;20026;-78
2022/03/10 08:21:48;;;;;;;22.02;11.77;;;6.40;82.30;;;;;;4988991;28;20037;-79
2022/03/10 08:24:15;;;;;;;24.67;12.65;;;6.50;82.10;;;;;;4983507;28;20030;-79
2022/03/10 08:26:40;;;;;;;29.65;13.38;;;6.60;82.00;;;;;;4998269;28;20442;-77
2022/03/10 08:29:06;;;;;;;24.60;13.38;;;6.70;81.70;;;;;;4997102;28;20081;-78
2022/03/10 08:31:32;;;;;;;25.20;13.48;;;6.80;81.20;;;;;;4987865;28;20106;-78
2022/03/10 08:33:58;;;;;;;27.52;12.85;;;7.00;80.30;;;;;;4999397;28;20070;-78
2022/03/10 08:36:23;;;;;;;26.88;13.20;;;7.00;79.70;;;;;;4988664;28;20022;-78
2022/03/10 08:38:49;;;;;;;25.00;13.35;;;7.10;79.60;;;;;;4991746;28;20509;-79
2022/03/10 08:41:14;;;;;;;26.63;12.88;;;7.30;79.00;;;;;;4997472;28;20034;-80
2022/03/10 08:43:40;;;;;;;27.60;14.25;;;7.40;78.40;;;;;;4998283;28;20041;-78
2022/03/10 08:46:06;;;;;;;28.10;14.02;;;7.50;77.80;;;;;;5003439;28;20500;-79
2022/03/10 08:48:34;;;;;;;27.83;14.02;;;7.60;77.90;;;;;;4989040;28;20482;-78
2022/03/10 08:51:00;;;;;;;27.73;14.23;;;7.70;77.40;;;;;;5000552;28;20017;-78
2022/03/10 08:53:26;;;;;;;28.15;15.10;;;7.80;77.10;;;;;;5021541;28;20090;-79
2022/03/10 08:55:52;;;;;;;27.30;14.68;;;7.90;76.90;;;;;;4999125;28;20089;-80
2022/03/10 08:58:18;;;;;;;29.15;13.93;;;8.00;76.90;;;;;;5005166;28;20026;-81
2022/03/10 09:00:44;;;;;;;26.58;14.80;;;8.10;76.80;;;;;;5004452;28;20029;-80
2022/03/10 09:03:10;;;;;;;27.33;15.60;;;8.30;76.10;;;;;;4991132;28;20497;-77
2022/03/10 09:05:37;;;;;;;25.25;13.63;;;8.30;76.00;;;;;;5000347;28;20081;-79
2022/03/10 09:08:03;;;;;;;30.40;15.73;;;8.50;75.80;;;;;;4995900;28;20035;-80
2022/03/10 09:10:30;;;;;;;26.67;14.85;;;8.60;75.50;;;;;;4997648;28;20030;-80
2022/03/10 09:12:56;;;;;;;29.08;15.18;;;8.70;75.50;;;;;;4990185;28;20466;-79
2022/03/10 09:15:22;;;;;;;27.17;15.18;;;8.80;75.00;;;;;;4994536;28;20026;-79
2022/03/10 09:17:48;;;;;;;29.95;14.90;;;8.90;74.90;;;;;;4990185;28;20495;-77
2022/03/10 09:20:14;;;;;;;27.65;14.18;;;9.00;74.00;;;;;;4992599;28;20018;-77
2022/03/10 09:22:40;;;;;;;26.60;16.02;;;9.20;74.00;;;;;;4987872;28;20363;-78
2022/03/10 09:25:08;;;;;;;26.98;14.75;;;9.20;73.80;;;;;;5014028;28;20058;-80
2022/03/10 09:27:36;;;;;;;28.08;14.60;;;9.30;73.50;;;;;;5011203;28;20033;-77
2022/03/10 09:30:03;;;;;;;27.75;15.38;;;9.40;72.80;;;;;;4988164;28;20555;-79
2022/03/10 09:32:36;;;;;;;30.55;15.25;;;9.50;72.30;;;;;;4994053;28;20462;-78
2022/03/10 09:35:06;;;;;;;28.10;14.40;;;9.60;72.00;;;;;;4990856;28;20061;-78
2022/03/10 09:37:32;;;;;;;26.50;14.65;;;9.80;72.10;;;;;;4992739;28;20026;-78
2022/03/10 09:39:58;;;;;;;29.73;15.45;;;9.90;71.70;;;;;;5005482;28;20524;-78
2022/03/10 09:42:28;;;;;;;25.77;14.45;;;10.00;71.40;;;;;;4987507;28;20429;-78
2022/03/10 09:44:57;;;;;;;26.77;14.82;;;10.10;70.90;;;;;;4980356;28;20026;-78
2022/03/10 09:47:23;;;;;;;30.23;14.65;;;10.20;70.50;;;;;;4988476;28;20390;-79
2022/03/10 09:49:49;;;;;;;26.48;14.55;;;10.20;70.00;;;;;;4990981;28;20042;-79
2022/03/10 09:52:14;;;;;;;32.03;16.05;;;10.30;69.90;;;;;;4990902;28;20029;-78
2022/03/10 09:54:40;;;;;;;28.02;15.65;;;10.40;69.80;;;;;;4992154;28;20038;-79
2022/03/10 09:57:07;;;;;;;27.00;15.60;;;10.50;69.30;;;;;;5001851;28;20030;-78
2022/03/10 09:59:32;;;;;;;29.90;14.77;;;10.50;69.20;;;;;;5004519;28;20034;-78
2022/03/10 10:01:58;;;;;;;30.10;16.15;;;10.60;69.10;;;;;;4982673;28;20022;-80
2022/03/10 10:04:24;;;;;;;27.10;15.55;;;10.60;68.50;;;;;;4980075;28;20034;-79
2022/03/10 10:07:04;;;;;;;29.75;15.43;;;10.60;68.50;;;;;;4994521;28;20025;-80
2022/03/10 10:09:54;;;;;;;27.35;14.45;;;10.70;68.70;;;;;;4995003;28;20405;-80
2022/03/10 10:12:23;;;;;;;28.10;15.32;;;10.90;68.20;;;;;;4988144;28;20867;-79
2022/03/10 10:14:50;;;;;;;31.67;16.70;;;10.90;68.10;;;;;;5000005;28;20919;-79
2022/03/10 10:17:19;;;;;;;31.23;16.55;;;11.00;68.20;;;;;;4988003;28;20038;-81
2022/03/10 10:19:45;;;;;;;35.40;17.17;;;11.10;68.00;;;;;;4993267;28;20469;-80
2022/03/10 10:22:20;;;;;;;30.42;17.20;;;11.20;68.00;;;;;;5006949;28;20055;-80
2022/03/10 10:24:57;;;;;;;29.45;16.40;;;11.30;67.10;;;;;;4985186;28;20084;-79
2022/03/10 10:27:33;;;;;;;30.20;15.77;;;11.40;67.60;;;;;;4989902;28;20918;-80
2022/03/10 10:30:04;;;;;;;30.25;16.05;;;11.50;67.00;;;;;;4992428;28;20039;-79
2022/03/10 10:32:35;;;;;;;29.70;16.13;;;11.60;66.70;;;;;;5003759;28;20126;-82
2022/03/10 10:35:06;;;;;;;29.30;15.98;;;11.70;66.40;;;;;;5004542;28;20394;-80
2022/03/10 10:37:34;;;;;;;31.53;16.67;;;11.80;65.90;;;;;;4988183;28;20026;-82
2022/03/10 10:39:59;;;;;;;32.10;16.13;;;11.90;65.80;;;;;;4996062;28;20282;-80
2022/03/10 10:42:30;;;;;;;30.35;16.95;;;12.00;65.80;;;;;;4981679;28;20034;-79
2022/03/10 10:45:01;;;;;;;29.38;16.27;;;12.10;65.90;;;;;;4982459;28;20049;-81
2022/03/10 10:47:28;;;;;;;31.95;16.80;;;12.20;65.30;;;;;;4990103;28;20030;-82
2022/03/10 10:50:00;;;;;;;27.75;17.40;;;12.30;65.00;;;;;;5004054;28;20393;-82
2022/03/10 10:52:38;;;;;;;32.10;16.55;;;12.30;65.30;;;;;;4997221;28;20026;-83
2022/03/10 10:55:12;;;;;;;30.55;16.45;;;12.40;65.10;;;;;;5003631;28;20033;-80
2022/03/10 10:57:39;;;;;;;33.20;16.52;;;12.50;64.80;;;;;;5002247;28;20075;-82
2022/03/10 11:00:12;;;;;;;30.50;17.10;;;12.60;64.60;;;;;;4991422;28;20030;-82
2022/03/10 11:02:43;;;;;;;28.40;16.42;;;12.60;64.40;;;;;;4998573;28;20549;-82
2022/03/10 11:05:15;;;;;;;28.95;16.30;;;12.70;64.30;;;;;;4982126;28;20034;-83
2022/03/10 11:07:42;;;;;;;29.15;16.45;;;12.80;63.40;;;;;;4983068;28;20019;-83
2022/03/10 11:10:10;;;;;;;28.42;16.25;;;12.80;63.60;;;;;;4990720;28;20050;-81
2022/03/10 11:12:39;;;;;;;28.85;16.08;;;12.80;64.10;;;;;;4991322;28;20049;-81
2022/03/10 11:15:07;;;;;;;29.13;16.58;;;12.90;63.60;;;;;;4998064;28;20073;-81
2022/03/10 11:17:34;;;;;;;29.88;17.10;;;13.00;63.20;;;;;;4989176;28;20478;-80
2022/03/10 11:20:05;;;;;;;32.38;16.90;;;13.10;63.20;;;;;;4985652;28;20014;-81
2022/03/10 11:22:59;;;;;;;33.78;17.48;;;13.10;62.80;;;;;;4983860;28;20030;-81
2022/03/10 11:25:42;;;;;;;29.35;16.40;;;13.20;62.50;;;;;;4982966;28;20451;-82
2022/03/10 11:28:17;;;;;;;30.50;17.25;;;13.20;62.70;;;;;;4984198;28;20053;-82
2022/03/10 11:30:55;;;;;;;30.50;16.98;;;13.40;62.30;;;;;;4984991;28;20030;-81
2022/03/10 11:33:32;;;;;;;31.58;17.15;;;13.40;62.30;;;;;;4982375;28;20105;-80
2022/03/10 11:35:58;;;;;;;29.52;16.70;;;13.50;62.20;;;;;;4986756;28;20362;-81
2022/03/10 11:38:51;;;;;;;30.80;15.52;;;13.60;61.70;;;;;;4982823;28;20034;-80
2022/03/10 11:41:17;;;;;;;32.95;16.77;;;13.60;61.60;;;;;;4992183;28;20041;-81
2022/03/10 11:43:56;;;;;;;28.15;16.33;;;13.70;61.50;;;;;;4987093;28;20097;-80
2022/03/10 11:46:24;;;;;;;29.83;15.15;;;13.70;61.40;;;;;;4987620;28;20018;-80
2022/03/10 11:49:14;;;;;;;24.75;15.35;;;13.80;61.30;;;;;;4991552;28;20038;-80
2022/03/10 11:51:54;;;;;;;26.42;15.25;;;13.80;60.60;;;;;;4988375;28;20050;-81
2022/03/10 11:54:30;;;;;;;27.30;15.75;;;13.90;61.20;;;;;;4987617;28;20503;-81
2022/03/10 11:57:00;;;;;;;25.40;14.80;;;14.00;60.90;;;;;;4989393;28;20030;-81
2022/03/10 11:59:34;;;;;;;23.17;14.50;;;14.00;60.60;;;;;;4991800;28;20049;-80
2022/03/10 12:02:01;;;;;;;24.90;14.48;;;14.20;60.40;;;;;;4987632;28;20034;-80
2022/03/10 12:04:40;;;;;;;25.05;14.27;;;14.20;60.00;;;;;;4987398;28;20113;-81
2022/03/10 12:07:16;;;;;;;25.08;14.43;;;14.20;60.20;;;;;;4980073;28;20540;-81
2022/03/10 12:09:42;;;;;;;27.85;14.50;;;14.30;59.80;;;;;;4981112;28;20037;-81
2022/03/10 12:12:21;;;;;;;23.17;12.60;;;14.30;59.30;;;;;;5001629;28;20429;-80
2022/03/10 12:14:47;;;;;;;24.90;15.18;;;14.40;59.60;;;;;;5003946;28;20041;-81
2022/03/10 12:17:52;;;;;;;29.17;14.70;;;14.40;59.20;;;;;;4992328;28;20033;-81
2022/03/10 12:20:41;;;;;;;24.20;14.13;;;14.40;58.80;;;;;;4999642;28;20048;-81
2022/03/10 12:23:12;;;;;;;29.02;15.02;;;14.50;59.10;;;;;;4987346;28;20034;-81
2022/03/10 12:25:55;;;;;;;29.17;14.27;;;14.60;58.40;;;;;;4984076;28;20035;-81
2022/03/10 12:28:33;;;;;;;24.80;13.65;;;14.60;58.30;;;;;;4990951;28;20054;-81
2022/03/10 12:31:05;;;;;;;25.35;13.75;;;14.70;58.20;;;;;;4988525;28;20481;-80
2022/03/10 12:33:32;;;;;;;24.92;13.10;;;14.80;57.70;;;;;;4988709;28;20065;-81
2022/03/10 12:35:59;;;;;;;25.63;13.93;;;14.80;57.70;;;;;;4994961;28;20049;-81
2022/03/10 12:38:43;;;;;;;27.23;13.98;;;14.90;57.20;;;;;;4987789;28;20035;-80
2022/03/10 12:41:10;;;;;;;26.27;14.43;;;14.90;56.60;;;;;;4987697;28;20121;-81
2022/03/10 12:43:35;;;;;;;23.33;13.43;;;15.00;56.00;;;;;;4975723;28;20058;-81